Terminal Aerodrome Forecast
Issued by NWS Shreveport, LA

Current Version | Previous Version | Text Only | Print | Product List | Glossary On
Versions: 1 2 3 4 5 6 7 8 9 10 11 12 13 14 15 16
000
FTUS44 KSHV 181758
TAFMLU
TAF
KMLU 181758Z 1818/1918 16007KT P6SM BKN015 OVC050
     FM182000 VRB06KT P6SM VCSH BKN025 OVC035
     FM190000 VRB06KT P6SM SCT008 OVC015
     FM190900 22004KT 4SM BR OVC008
      TEMPO 1912/1915 6SM BR BKN010
     FM191500 21009KT P6SM OVC015=

USA.gov is the U.S. government's official web portal to all federal, state and local government web resources and services.